Time;durP1;ratioP1;P1;durP2;ratioP2;P2;SDS_P1;SDS_P2;PMS_P1;PMS_P2;Temp;Humidity;BMP_temperature;BMP_pressure;BME280_temperature;BME280_humidity;BME280_pressure;Samples;Min_cycle;Max_cycle;Signal;HPM_P1;HPM_P2
2020/12/01 00:02:07;;;;;;;28.10;15.75;;;1.30;83.10;;;;;;5104868;28;27377;-38
2020/12/01 00:04:52;;;;;;;30.92;15.75;;;1.30;83.30;;;;;;5104225;28;27347;-38
2020/12/01 00:07:37;;;;;;;35.92;16.30;;;1.30;83.30;;;;;;5103072;28;27336;-37
2020/12/01 00:10:21;;;;;;;30.13;14.85;;;1.40;83.40;;;;;;5101181;28;27969;-38
2020/12/01 00:13:06;;;;;;;30.83;16.27;;;1.40;83.50;;;;;;5104694;28;27464;-38
2020/12/01 00:15:51;;;;;;;30.98;14.82;;;1.40;83.50;;;;;;5104513;28;27403;-38
2020/12/01 00:18:36;;;;;;;26.88;14.40;;;1.40;83.50;;;;;;5103866;28;27505;-38
2020/12/01 00:21:21;;;;;;;31.70;16.23;;;1.40;83.40;;;;;;5104595;28;27487;-38
2020/12/01 00:24:05;;;;;;;31.08;15.73;;;1.50;83.50;;;;;;5104415;28;27422;-37
2020/12/01 00:26:50;;;;;;;25.80;13.93;;;1.50;83.60;;;;;;5104587;28;27445;-38
2020/12/01 00:29:34;;;;;;;30.50;16.27;;;1.40;83.50;;;;;;5100287;28;27454;-38
2020/12/01 00:32:19;;;;;;;30.92;15.05;;;1.40;83.40;;;;;;5104465;28;27456;-38
2020/12/01 00:35:08;;;;;;;25.45;14.55;;;1.50;83.50;;;;;;5104136;28;27453;-38
2020/12/01 00:37:53;;;;;;;28.77;15.13;;;1.50;83.60;;;;;;5104424;28;27396;-39
2020/12/01 00:40:37;;;;;;;30.73;15.13;;;1.50;84.00;;;;;;5104077;28;27355;-38
2020/12/01 00:43:22;;;;;;;32.80;15.98;;;1.50;84.10;;;;;;5102000;28;27432;-37
2020/12/01 00:46:07;;;;;;;34.72;16.40;;;1.50;84.30;;;;;;5104020;28;27386;-37
2020/12/01 00:48:52;;;;;;;31.60;15.25;;;1.50;84.20;;;;;;5104372;28;27399;-38
2020/12/01 00:51:37;;;;;;;30.77;16.63;;;1.50;84.20;;;;;;5100292;28;27398;-38
2020/12/01 00:54:22;;;;;;;26.25;14.73;;;1.50;84.50;;;;;;5100570;28;27389;-44
2020/12/01 00:57:07;;;;;;;36.70;18.35;;;1.50;84.60;;;;;;5099860;28;27337;-38
2020/12/01 00:59:52;;;;;;;31.00;16.90;;;1.60;84.70;;;;;;5099924;28;27426;-38
2020/12/01 01:02:44;;;;;;;30.60;16.35;;;1.50;84.80;;;;;;5099777;28;27370;-38
2020/12/01 01:05:29;;;;;;;32.90;16.70;;;1.50;84.70;;;;;;5103749;27;27469;-38
2020/12/01 01:08:13;;;;;;;30.13;16.13;;;1.50;84.70;;;;;;5105890;28;27499;-37
2020/12/01 01:10:58;;;;;;;30.15;15.88;;;1.50;84.90;;;;;;5106926;28;27473;-37
2020/12/01 01:13:42;;;;;;;33.38;17.10;;;1.50;85.00;;;;;;5107174;28;27395;-38
2020/12/01 01:16:27;;;;;;;32.85;16.70;;;1.50;85.10;;;;;;5107153;28;27492;-38
2020/12/01 01:19:12;;;;;;;33.22;16.50;;;1.60;85.20;;;;;;5107417;28;27453;-38
2020/12/01 01:21:57;;;;;;;29.00;14.77;;;1.50;85.10;;;;;;5107087;28;27438;-37
2020/12/01 01:24:44;;;;;;;32.33;16.13;;;1.50;85.20;;;;;;5103063;28;27648;-44
2020/12/01 01:27:29;;;;;;;31.80;15.52;;;1.50;85.20;;;;;;5107239;28;27800;-39
2020/12/01 01:30:15;;;;;;;28.35;14.98;;;1.50;85.10;;;;;;5106923;28;27502;-38
2020/12/01 01:33:00;;;;;;;30.17;15.00;;;1.60;85.20;;;;;;5106929;28;27422;-38
2020/12/01 01:35:44;;;;;;;31.13;15.60;;;1.60;85.40;;;;;;5107129;28;27390;-38
2020/12/01 01:38:29;;;;;;;31.55;15.65;;;1.60;85.30;;;;;;5105533;28;27620;-38
2020/12/01 01:41:13;;;;;;;29.45;15.77;;;1.60;85.30;;;;;;5106751;28;27492;-39
2020/12/01 01:43:58;;;;;;;28.90;14.95;;;1.60;85.30;;;;;;5106665;28;27430;-38
2020/12/01 01:46:44;;;;;;;30.63;15.18;;;1.60;85.20;;;;;;5106689;28;27464;-38
2020/12/01 01:49:36;;;;;;;28.45;14.80;;;1.60;85.10;;;;;;5106613;28;27419;-39
2020/12/01 01:52:27;;;;;;;29.27;15.05;;;1.60;85.10;;;;;;5106612;28;27391;-39
2020/12/01 01:55:16;;;;;;;24.23;12.80;;;1.60;85.10;;;;;;5106911;28;27376;-38
2020/12/01 01:58:02;;;;;;;29.08;14.02;;;1.60;84.80;;;;;;5106537;28;27359;-38
2020/12/01 02:00:58;;;;;;;23.90;13.07;;;1.60;84.60;;;;;;5106000;28;27995;-42
2020/12/01 02:03:50;;;;;;;28.23;14.50;;;1.60;84.50;;;;;;5103674;28;27486;-38
2020/12/01 02:06:54;;;;;;;26.95;13.68;;;1.70;84.50;;;;;;5106447;28;27336;-38
2020/12/01 02:10:22;;;;;;;24.95;13.88;;;1.70;84.70;;;;;;5103364;28;27394;-38
2020/12/01 02:13:07;;;;;;;24.67;13.30;;;1.60;84.60;;;;;;5092800;28;27568;-37
2020/12/01 02:15:51;;;;;;;24.77;14.20;;;1.70;84.50;;;;;;5106266;28;27398;-38
2020/12/01 02:18:36;;;;;;;27.52;15.02;;;1.70;84.40;;;;;;5106141;27;27315;-37
2020/12/01 02:21:27;;;;;;;30.77;14.82;;;1.70;84.40;;;;;;5106179;28;27319;-40
2020/12/01 02:24:16;;;;;;;26.15;13.38;;;1.60;84.40;;;;;;5105978;28;27366;-38
2020/12/01 02:27:00;;;;;;;26.20;13.05;;;1.70;84.30;;;;;;5106359;28;27327;-37
2020/12/01 02:29:46;;;;;;;25.80;13.07;;;1.70;84.20;;;;;;5106092;28;27331;-38
2020/12/01 02:32:31;;;;;;;23.27;12.07;;;1.70;84.20;;;;;;5105813;28;27452;-38
2020/12/01 02:35:15;;;;;;;25.80;13.80;;;1.70;84.10;;;;;;5106247;28;27953;-37
2020/12/01 02:37:59;;;;;;;25.15;12.45;;;1.70;84.10;;;;;;5106195;28;27394;-44
2020/12/01 02:40:44;;;;;;;23.80;12.73;;;1.70;84.20;;;;;;5106159;28;27330;-38
2020/12/01 02:43:29;;;;;;;27.00;13.43;;;1.70;84.10;;;;;;5101784;28;27401;-38
2020/12/01 02:46:13;;;;;;;24.70;12.90;;;1.70;84.10;;;;;;5102815;28;27393;-38
2020/12/01 02:48:57;;;;;;;26.60;12.43;;;1.80;84.20;;;;;;5105976;28;27374;-38
2020/12/01 02:51:42;;;;;;;23.67;12.68;;;1.80;84.20;;;;;;5105736;28;27336;-38
2020/12/01 02:54:26;;;;;;;24.48;12.70;;;1.80;84.20;;;;;;5105735;28;27460;-38
2020/12/01 02:57:11;;;;;;;26.98;12.40;;;1.70;84.40;;;;;;5105518;28;27884;-39
2020/12/01 02:59:55;;;;;;;26.05;12.60;;;1.70;84.10;;;;;;5105326;28;27465;-39
2020/12/01 03:02:40;;;;;;;26.38;12.95;;;1.80;84.20;;;;;;5105180;28;27472;-39
2020/12/01 03:05:24;;;;;;;30.30;12.65;;;1.70;84.10;;;;;;5105170;28;27458;-38
2020/12/01 03:08:09;;;;;;;26.67;12.32;;;1.70;84.10;;;;;;5105380;28;27485;-39
2020/12/01 03:10:54;;;;;;;29.13;13.13;;;1.80;84.20;;;;;;5104806;28;27401;-38
2020/12/01 03:13:38;;;;;;;23.63;12.48;;;1.80;84.20;;;;;;5105456;28;27453;-40
2020/12/01 03:16:23;;;;;;;24.27;12.45;;;1.80;84.20;;;;;;5102262;28;27399;-44
2020/12/01 03:19:08;;;;;;;24.13;12.18;;;1.80;84.20;;;;;;5105490;28;27448;-38
2020/12/01 03:21:53;;;;;;;24.42;13.35;;;1.80;84.20;;;;;;5105139;28;27415;-38
2020/12/01 03:24:37;;;;;;;29.25;13.98;;;1.80;84.30;;;;;;5102034;28;27390;-38
2020/12/01 03:27:22;;;;;;;25.10;12.80;;;1.80;84.40;;;;;;5104917;28;27520;-38
2020/12/01 03:30:06;;;;;;;27.83;13.68;;;1.80;84.50;;;;;;5104341;28;27880;-38
2020/12/01 03:32:50;;;;;;;26.42;12.45;;;1.70;84.50;;;;;;5101254;28;27424;-38
2020/12/01 03:35:35;;;;;;;25.50;13.63;;;1.80;84.50;;;;;;5105275;28;27342;-38
2020/12/01 03:38:20;;;;;;;26.10;12.73;;;1.80;84.40;;;;;;5104947;28;27417;-38
2020/12/01 03:41:04;;;;;;;27.23;12.50;;;1.80;84.50;;;;;;5104882;28;27417;-37
2020/12/01 03:43:49;;;;;;;22.92;13.10;;;1.80;84.30;;;;;;5105037;28;27397;-38
2020/12/01 03:46:33;;;;;;;21.88;11.85;;;1.80;84.40;;;;;;5105132;28;27408;-37
2020/12/01 03:49:17;;;;;;;22.27;11.48;;;1.80;84.40;;;;;;5105105;28;27310;-37
2020/12/01 03:52:02;;;;;;;26.20;13.38;;;1.80;84.50;;;;;;5104984;28;27374;-37
2020/12/01 03:54:46;;;;;;;23.90;12.63;;;1.80;84.40;;;;;;5101373;28;27430;-37
2020/12/01 03:57:40;;;;;;;23.30;12.63;;;1.80;84.50;;;;;;5105032;28;27445;-44
2020/12/01 04:00:27;;;;;;;30.45;14.40;;;1.80;84.50;;;;;;5104865;28;27461;-42
2020/12/01 04:03:11;;;;;;;24.17;12.43;;;1.80;84.50;;;;;;5104419;28;27419;-37
2020/12/01 04:05:57;;;;;;;26.20;12.73;;;1.80;84.50;;;;;;5104220;28;27414;-37
2020/12/01 04:08:42;;;;;;;27.70;12.73;;;1.80;84.50;;;;;;5104886;28;27347;-38
2020/12/01 04:11:26;;;;;;;24.60;12.68;;;1.80;84.60;;;;;;5104777;28;27452;-38
2020/12/01 04:14:10;;;;;;;26.10;12.25;;;1.80;84.60;;;;;;5104407;28;27438;-38
2020/12/01 04:16:55;;;;;;;25.27;13.40;;;1.80;84.60;;;;;;5104357;28;27472;-38
2020/12/01 04:19:39;;;;;;;23.85;12.02;;;1.80;84.50;;;;;;5103951;28;27435;-38
2020/12/01 04:22:24;;;;;;;25.70;12.82;;;1.80;84.60;;;;;;5104624;28;27402;-38
2020/12/01 04:25:08;;;;;;;27.25;13.90;;;1.80;84.80;;;;;;5104327;28;27441;-38
2020/12/01 04:27:53;;;;;;;23.42;12.88;;;1.80;84.70;;;;;;5104258;28;27500;-37
2020/12/01 04:30:38;;;;;;;27.67;13.02;;;1.80;84.70;;;;;;5104280;28;27413;-37
2020/12/01 04:33:23;;;;;;;24.02;11.52;;;1.90;84.90;;;;;;5104195;28;27492;-37
2020/12/01 04:36:08;;;;;;;24.17;12.23;;;1.80;84.80;;;;;;5104392;28;27867;-37
2020/12/01 04:38:53;;;;;;;22.75;11.93;;;1.80;84.80;;;;;;5104060;28;27445;-37
2020/12/01 04:41:37;;;;;;;23.77;12.38;;;1.80;84.90;;;;;;5106430;27;27520;-38
2020/12/01 04:44:41;;;;;;;23.58;12.20;;;1.80;84.80;;;;;;5107854;28;27410;-37
2020/12/01 04:47:28;;;;;;;22.30;12.02;;;1.80;84.90;;;;;;5107055;28;27398;-38
2020/12/01 04:50:14;;;;;;;24.88;12.55;;;1.80;85.00;;;;;;5106707;28;27426;-38
2020/12/01 04:53:37;;;;;;;24.80;12.82;;;1.80;84.90;;;;;;5107864;28;27426;-38
2020/12/01 04:56:43;;;;;;;22.13;11.73;;;1.80;84.90;;;;;;5107582;28;27383;-37
2020/12/01 04:59:33;;;;;;;26.27;12.63;;;1.90;85.00;;;;;;5107679;28;27475;-37
2020/12/01 05:02:35;;;;;;;27.70;13.23;;;1.90;85.10;;;;;;5107392;28;27465;-36
2020/12/01 05:05:59;;;;;;;20.38;11.07;;;1.80;85.20;;;;;;5106633;28;27575;-44
2020/12/01 05:08:47;;;;;;;25.00;11.80;;;1.90;85.30;;;;;;5107271;28;27476;-37
2020/12/01 05:11:43;;;;;;;26.48;11.95;;;1.90;85.20;;;;;;5106640;28;27856;-37
2020/12/01 05:14:36;;;;;;;24.90;12.23;;;1.90;85.30;;;;;;5106178;28;27390;-37
2020/12/01 05:17:43;;;;;;;18.88;10.73;;;1.90;85.20;;;;;;5103236;28;27413;-37
2020/12/01 05:20:28;;;;;;;26.83;12.13;;;1.80;85.30;;;;;;5106530;28;27378;-37
2020/12/01 05:23:12;;;;;;;24.73;12.57;;;1.80;85.40;;;;;;5107404;28;27883;-37
2020/12/01 05:26:01;;;;;;;22.33;11.90;;;1.80;85.40;;;;;;5091584;28;27485;-37
2020/12/01 05:28:53;;;;;;;21.88;11.88;;;1.80;85.20;;;;;;5107050;28;27344;-37
2020/12/01 05:31:40;;;;;;;27.65;14.27;;;1.90;85.20;;;;;;5106561;28;27325;-38
2020/12/01 05:34:30;;;;;;;24.80;12.23;;;1.90;85.40;;;;;;5103960;28;27371;-42
2020/12/01 05:37:15;;;;;;;24.00;12.68;;;1.80;85.40;;;;;;5107138;28;27488;-37
2020/12/01 05:40:05;;;;;;;21.90;12.40;;;1.90;85.30;;;;;;5106902;28;27471;-41
2020/12/01 05:42:49;;;;;;;25.65;11.60;;;1.90;85.30;;;;;;5106295;28;27328;-37
2020/12/01 05:45:35;;;;;;;23.67;11.88;;;1.90;85.30;;;;;;5105664;28;27398;-37
2020/12/01 05:48:39;;;;;;;25.73;12.98;;;1.80;85.30;;;;;;5106670;28;27408;-37
2020/12/01 05:51:36;;;;;;;21.77;10.73;;;1.90;85.40;;;;;;5106722;28;27378;-38
2020/12/01 05:54:23;;;;;;;21.42;11.98;;;1.90;85.70;;;;;;5106499;28;27350;-43
2020/12/01 05:57:22;;;;;;;21.08;11.82;;;1.90;85.50;;;;;;5106598;28;27867;-37
2020/12/01 06:00:10;;;;;;;22.20;12.13;;;1.80;85.60;;;;;;5106813;28;27500;-44
2020/12/01 06:03:27;;;;;;;21.50;12.25;;;1.90;85.70;;;;;;5106481;28;27474;-38
2020/12/01 06:06:11;;;;;;;18.83;10.68;;;1.90;85.60;;;;;;5105941;28;27342;-38
2020/12/01 06:09:02;;;;;;;21.45;11.40;;;1.90;86.00;;;;;;5091010;28;27420;-39
2020/12/01 06:11:57;;;;;;;23.13;12.05;;;1.80;85.90;;;;;;5105875;28;27452;-37
2020/12/01 06:14:57;;;;;;;19.95;10.65;;;1.90;85.90;;;;;;5105832;28;27363;-37
2020/12/01 06:18:09;;;;;;;20.92;10.98;;;1.90;86.00;;;;;;5092637;28;27506;-44
2020/12/01 06:21:07;;;;;;;18.38;11.02;;;1.80;85.90;;;;;;5105493;28;27924;-38
2020/12/01 06:24:19;;;;;;;21.75;11.30;;;1.80;85.50;;;;;;5102798;28;27335;-38
2020/12/01 06:27:33;;;;;;;18.45;11.05;;;1.90;85.60;;;;;;5106436;28;27379;-37
2020/12/01 06:30:52;;;;;;;18.38;10.32;;;1.90;85.70;;;;;;5105589;27;27668;-37
2020/12/01 06:34:11;;;;;;;19.05;10.50;;;1.90;86.00;;;;;;5105230;28;27419;-38
2020/12/01 06:37:23;;;;;;;19.70;11.63;;;1.80;85.80;;;;;;5104929;28;27525;-37
2020/12/01 06:40:33;;;;;;;20.95;10.43;;;1.90;85.90;;;;;;5103002;28;27484;-38
2020/12/01 06:43:26;;;;;;;20.10;10.38;;;1.90;86.10;;;;;;5102581;28;27386;-37
2020/12/01 06:46:36;;;;;;;16.30;10.45;;;1.90;86.80;;;;;;5106018;28;27883;-37
2020/12/01 06:49:23;;;;;;;17.63;9.95;;;1.90;86.10;;;;;;5105766;28;27375;-37
2020/12/01 06:52:12;;;;;;;15.10;9.52;;;1.90;86.50;;;;;;5105282;28;27448;-37
2020/12/01 06:54:57;;;;;;;16.40;9.55;;;1.90;86.70;;;;;;5105761;28;27449;-37
2020/12/01 06:57:42;;;;;;;18.02;9.68;;;1.90;86.80;;;;;;5105656;28;27426;-37
2020/12/01 07:00:27;;;;;;;17.75;10.02;;;1.90;86.90;;;;;;5105922;28;27415;-44
2020/12/01 07:03:15;;;;;;;13.98;8.77;;;1.90;86.90;;;;;;5102694;28;27488;-37
2020/12/01 07:06:17;;;;;;;17.10;9.38;;;1.90;86.60;;;;;;5086745;28;27284;-38
2020/12/01 07:09:27;;;;;;;16.73;8.23;;;1.90;86.50;;;;;;5105594;28;27398;-37
2020/12/01 07:12:12;;;;;;;12.93;8.20;;;1.90;86.30;;;;;;5105383;28;27510;-37
2020/12/01 07:15:12;;;;;;;12.32;7.75;;;1.90;86.20;;;;;;5105693;28;27491;-37
2020/12/01 07:18:09;;;;;;;13.80;7.90;;;1.90;86.10;;;;;;5105303;28;27375;-37
2020/12/01 07:21:15;;;;;;;13.27;7.45;;;1.90;86.00;;;;;;5105192;28;27424;-38
2020/12/01 07:24:19;;;;;;;15.95;8.55;;;1.90;86.00;;;;;;5105416;28;27470;-38
2020/12/01 07:27:20;;;;;;;13.18;7.90;;;1.90;86.00;;;;;;5104739;28;27351;-38
2020/12/01 07:30:16;;;;;;;14.02;8.63;;;2.00;86.80;;;;;;5104567;28;27395;-45
2020/12/01 07:33:05;;;;;;;12.48;7.75;;;2.00;86.00;;;;;;5104890;28;27491;-42
2020/12/01 07:35:59;;;;;;;14.02;7.07;;;2.00;86.00;;;;;;5105039;28;27503;-38
2020/12/01 07:38:44;;;;;;;12.77;7.30;;;2.00;85.90;;;;;;5090994;28;27338;-38
2020/12/01 07:41:29;;;;;;;11.93;6.95;;;2.00;86.10;;;;;;5104180;28;27316;-37
2020/12/01 07:44:17;;;;;;;12.70;7.53;;;2.00;86.00;;;;;;5104793;28;27318;-38
2020/12/01 07:47:06;;;;;;;12.35;6.75;;;2.10;85.90;;;;;;5105137;28;27549;-38
2020/12/01 07:49:58;;;;;;;11.77;6.40;;;2.10;85.70;;;;;;5105178;28;27334;-38
2020/12/01 07:52:44;;;;;;;9.93;5.63;;;2.10;85.60;;;;;;5104864;28;27496;-38
2020/12/01 07:56:06;;;;;;;11.40;6.90;;;2.10;85.40;;;;;;5103930;28;27606;-38
2020/12/01 07:59:14;;;;;;;11.80;6.70;;;2.10;85.30;;;;;;5069413;28;27452;-38
2020/12/01 08:02:04;;;;;;;11.32;5.97;;;2.20;85.30;;;;;;5101450;28;27423;-38
2020/12/01 08:04:57;;;;;;;11.23;6.78;;;2.20;85.30;;;;;;5103926;28;27346;-43
2020/12/01 08:07:42;;;;;;;9.65;5.75;;;2.10;85.30;;;;;;5104116;28;27430;-38
2020/12/01 08:10:26;;;;;;;10.55;6.30;;;2.20;85.20;;;;;;5100465;28;27453;-44
2020/12/01 08:13:11;;;;;;;8.52;5.70;;;2.20;85.30;;;;;;5104153;28;27411;-37
2020/12/01 08:16:03;;;;;;;10.93;6.22;;;2.20;85.10;;;;;;5089276;28;27426;-37
2020/12/01 08:18:51;;;;;;;9.23;5.53;;;2.20;85.00;;;;;;5104419;28;27469;-38
2020/12/01 08:21:40;;;;;;;9.18;5.45;;;2.20;84.90;;;;;;5103841;28;27411;-37
2020/12/01 08:24:25;;;;;;;7.55;4.57;;;2.30;85.00;;;;;;5104716;28;27297;-37
2020/12/01 08:28:07;;;;;;;8.73;5.28;;;2.30;84.90;;;;;;5104639;28;27378;-37
2020/12/01 08:31:12;;;;;;;10.38;5.72;;;2.30;84.80;;;;;;5042196;28;27553;-38
2020/12/01 08:34:19;;;;;;;8.80;5.95;;;2.30;85.10;;;;;;5042104;28;27472;-39
2020/12/01 08:37:38;;;;;;;9.38;5.25;;;2.30;84.80;;;;;;5042262;28;27562;-38
2020/12/01 08:40:44;;;;;;;9.13;5.55;;;2.40;84.90;;;;;;5036770;28;27460;-38
2020/12/01 08:43:38;;;;;;;10.60;5.53;;;2.40;84.60;;;;;;5042046;28;27573;-38
2020/12/01 08:46:26;;;;;;;8.00;5.40;;;2.50;84.50;;;;;;5027943;28;27535;-37
2020/12/01 08:49:23;;;;;;;9.30;5.57;;;2.50;84.50;;;;;;5027783;28;27517;-37
2020/12/01 08:52:37;;;;;;;9.80;5.57;;;2.50;84.20;;;;;;5041919;28;27507;-37
2020/12/01 08:55:30;;;;;;;8.77;5.55;;;2.60;84.20;;;;;;5041276;28;27850;-37
2020/12/01 08:58:37;;;;;;;10.65;6.50;;;2.60;84.10;;;;;;5041519;28;27479;-38
2020/12/01 09:01:22;;;;;;;9.98;5.30;;;2.60;84.20;;;;;;5073589;28;27484;-39
2020/12/01 09:04:19;;;;;;;9.23;5.80;;;2.60;84.00;;;;;;5102263;28;27224;-38
2020/12/01 09:07:18;;;;;;;8.88;5.55;;;2.60;83.90;;;;;;5102942;28;27394;-38
2020/12/01 09:10:25;;;;;;;11.25;6.15;;;2.60;83.90;;;;;;5103708;28;27543;-38
2020/12/01 09:13:27;;;;;;;12.40;6.50;;;2.70;84.30;;;;;;5103689;28;27418;-38
2020/12/01 09:16:24;;;;;;;9.90;6.50;;;2.60;84.80;;;;;;5102987;28;27350;-37
2020/12/01 09:22:27;;;;;;;8.20;5.43;;;2.60;85.00;;;;;;5103578;28;27364;-37
2020/12/01 09:25:19;;;;;;;9.50;5.82;;;2.60;85.00;;;;;;5103332;28;27537;-37
2020/12/01 09:28:10;;;;;;;10.10;5.97;;;2.60;84.90;;;;;;5104840;27;27462;-37
2020/12/01 09:31:02;;;;;;;10.07;6.88;;;2.60;85.00;;;;;;5107063;28;27926;-37
2020/12/01 09:33:46;;;;;;;12.40;6.93;;;2.60;85.30;;;;;;5106793;28;27448;-37
2020/12/01 09:36:31;;;;;;;10.77;5.93;;;2.60;85.30;;;;;;5103921;28;27400;-37
2020/12/01 09:39:16;;;;;;;10.00;5.72;;;2.70;85.30;;;;;;5103512;28;27452;-37
2020/12/01 09:42:27;;;;;;;9.75;6.18;;;2.70;85.50;;;;;;5088401;28;27407;-38
2020/12/01 09:45:22;;;;;;;11.38;6.93;;;2.70;85.00;;;;;;5103579;28;27463;-38
2020/12/01 09:48:13;;;;;;;11.40;6.43;;;2.70;85.00;;;;;;5106782;28;27408;-38
2020/12/01 09:50:57;;;;;;;9.93;6.40;;;2.70;84.80;;;;;;5103398;28;27431;-38
2020/12/01 10:00:30;;;;;;;9.48;6.13;;;2.70;84.80;;;;;;5100842;27;27443;-37
2020/12/01 10:09:06;;;;;;;10.20;6.38;;;2.80;84.60;;;;;;5106303;28;27389;-37
2020/12/01 10:35:47;;;;;;;8.82;5.50;;;2.90;84.00;;;;;;5105485;28;27391;-37
2020/12/01 10:38:31;;;;;;;10.43;5.82;;;2.90;84.00;;;;;;5105967;27;27373;-37
2020/12/01 10:41:16;;;;;;;7.55;5.30;;;2.90;84.10;;;;;;5105699;28;27399;-38
2020/12/01 10:44:01;;;;;;;7.82;5.63;;;2.90;84.10;;;;;;5105832;28;27320;-37
2020/12/01 10:46:48;;;;;;;9.63;5.53;;;2.90;85.00;;;;;;5105943;28;27320;-38
2020/12/01 10:49:32;;;;;;;7.95;4.95;;;2.90;84.30;;;;;;5106002;28;27683;-38
2020/12/01 10:52:17;;;;;;;8.18;4.50;;;2.90;84.10;;;;;;5105958;28;27979;-38
2020/12/01 10:55:02;;;;;;;8.00;4.88;;;2.90;84.00;;;;;;5105971;28;27521;-38
2020/12/01 10:57:47;;;;;;;9.90;5.75;;;2.90;84.00;;;;;;5104963;28;27399;-38
2020/12/01 11:00:31;;;;;;;7.20;4.82;;;3.00;83.80;;;;;;5105597;28;27373;-38
2020/12/01 11:03:15;;;;;;;11.40;5.18;;;3.00;83.80;;;;;;5105178;28;27348;-37
2020/12/01 11:06:00;;;;;;;9.38;4.63;;;3.00;83.90;;;;;;5104830;28;27515;-37
2020/12/01 11:08:44;;;;;;;8.02;5.55;;;3.00;83.80;;;;;;5105763;28;27389;-38
2020/12/01 11:11:29;;;;;;;8.07;4.93;;;3.00;83.70;;;;;;5105740;28;27320;-37
2020/12/01 11:14:13;;;;;;;7.68;4.68;;;3.10;83.80;;;;;;5105425;28;27387;-37
2020/12/01 11:16:58;;;;;;;7.57;4.85;;;3.10;83.40;;;;;;5105330;28;27343;-37
2020/12/01 11:19:43;;;;;;;7.90;4.35;;;3.10;83.70;;;;;;5105421;28;27366;-37
2020/12/01 11:22:27;;;;;;;8.48;5.05;;;3.00;83.80;;;;;;5105388;28;27477;-37
2020/12/01 11:25:12;;;;;;;8.88;4.63;;;3.10;83.80;;;;;;5105199;28;27465;-39
2020/12/01 11:27:56;;;;;;;6.07;4.78;;;3.10;83.90;;;;;;5105397;28;27477;-38
2020/12/01 11:30:41;;;;;;;6.97;4.60;;;3.00;83.60;;;;;;5105444;28;27504;-39
2020/12/01 11:33:26;;;;;;;6.85;4.30;;;3.10;83.50;;;;;;5104956;28;27406;-39
2020/12/01 11:36:10;;;;;;;7.72;4.30;;;3.10;83.40;;;;;;5105331;28;28053;-38
2020/12/01 11:38:55;;;;;;;9.82;4.32;;;3.10;83.50;;;;;;5105266;28;27416;-39
2020/12/01 11:41:40;;;;;;;7.88;4.60;;;3.20;83.70;;;;;;5105080;28;27491;-39
2020/12/01 11:44:25;;;;;;;4.57;3.65;;;3.20;83.50;;;;;;5104871;28;27418;-38
2020/12/01 11:47:09;;;;;;;7.32;4.22;;;3.30;83.10;;;;;;5104092;28;27884;-38
2020/12/01 11:49:54;;;;;;;8.68;4.78;;;3.30;83.10;;;;;;5104761;27;27415;-46
2020/12/01 11:52:38;;;;;;;6.65;4.22;;;3.40;83.30;;;;;;5101504;28;27434;-38
2020/12/01 11:55:23;;;;;;;5.22;3.90;;;3.40;83.00;;;;;;5100952;28;27452;-38
2020/12/01 11:58:08;;;;;;;6.95;4.63;;;3.50;82.70;;;;;;5100686;28;27415;-38
2020/12/01 12:00:52;;;;;;;6.15;4.25;;;3.50;82.40;;;;;;5104984;28;27502;-38
2020/12/01 12:03:37;;;;;;;5.03;3.67;;;3.50;82.70;;;;;;5103862;28;27333;-38
2020/12/01 12:06:21;;;;;;;5.88;3.63;;;3.60;83.10;;;;;;5100543;28;27400;-38
2020/12/01 12:09:07;;;;;;;4.65;3.10;;;3.60;83.00;;;;;;5104794;28;27872;-39
2020/12/01 12:11:52;;;;;;;5.30;3.80;;;3.60;82.90;;;;;;5104804;28;27417;-46
2020/12/01 12:14:36;;;;;;;4.65;3.25;;;3.60;82.90;;;;;;5103830;28;27439;-38
2020/12/01 12:17:21;;;;;;;6.63;3.40;;;3.60;82.90;;;;;;5101251;28;27374;-38
2020/12/01 12:20:05;;;;;;;4.50;3.15;;;3.70;82.90;;;;;;5104783;28;27833;-38
2020/12/01 12:22:50;;;;;;;4.10;3.35;;;3.70;82.80;;;;;;5104446;28;27394;-38
2020/12/01 12:25:35;;;;;;;5.18;3.50;;;3.70;82.60;;;;;;5104515;28;27355;-45
2020/12/01 12:28:20;;;;;;;4.13;3.13;;;3.80;82.50;;;;;;5104322;28;27368;-38
2020/12/01 12:31:05;;;;;;;6.05;3.08;;;3.90;82.30;;;;;;5103665;28;27856;-38
2020/12/01 12:33:50;;;;;;;5.88;3.03;;;3.90;82.20;;;;;;5104461;28;27356;-37
2020/12/01 12:36:34;;;;;;;3.97;2.72;;;3.90;82.00;;;;;;5104544;28;26911;-37
2020/12/01 12:39:19;;;;;;;4.30;3.03;;;3.90;82.20;;;;;;5104436;28;27316;-38
2020/12/01 12:42:03;;;;;;;4.63;2.72;;;3.90;82.20;;;;;;5104128;28;27413;-39
2020/12/01 12:44:48;;;;;;;3.35;2.30;;;3.90;82.30;;;;;;5100708;28;27366;-38
2020/12/01 12:47:33;;;;;;;3.85;2.67;;;3.80;82.50;;;;;;5103378;28;27384;-38
2020/12/01 12:50:18;;;;;;;3.85;2.67;;;3.90;82.70;;;;;;5104404;28;27344;-38
2020/12/01 12:53:03;;;;;;;4.53;2.25;;;3.90;82.50;;;;;;5104306;28;27950;-37
2020/12/01 12:55:47;;;;;;;3.50;2.42;;;3.90;82.40;;;;;;5104025;28;27510;-40
2020/12/01 12:58:32;;;;;;;4.57;3.08;;;4.00;82.30;;;;;;5104014;28;27469;-38
2020/12/01 13:01:17;;;;;;;3.47;2.53;;;4.00;82.30;;;;;;5103163;28;27419;-38
2020/12/01 13:04:01;;;;;;;4.15;2.70;;;4.10;82.40;;;;;;5106775;28;27474;-38
2020/12/01 13:06:45;;;;;;;3.67;2.67;;;4.10;82.30;;;;;;5107396;28;27465;-38
2020/12/01 13:09:30;;;;;;;4.10;2.67;;;4.10;82.10;;;;;;5107463;28;27397;-38
2020/12/01 13:12:15;;;;;;;4.35;2.60;;;4.10;82.30;;;;;;5107611;28;27411;-38
2020/12/01 13:14:59;;;;;;;5.15;2.75;;;4.10;82.10;;;;;;5107283;28;27901;-38
2020/12/01 13:17:44;;;;;;;3.33;2.58;;;4.10;82.00;;;;;;5103197;28;27458;-38
2020/12/01 13:20:30;;;;;;;2.75;2.05;;;4.20;82.20;;;;;;5104265;28;27400;-44
2020/12/01 13:23:16;;;;;;;2.90;2.22;;;4.20;81.90;;;;;;5107128;28;27475;-38
2020/12/01 13:26:00;;;;;;;3.60;2.20;;;4.30;82.00;;;;;;5107112;28;27508;-39
2020/12/01 13:28:45;;;;;;;3.42;2.10;;;4.30;81.90;;;;;;5107328;28;27418;-39
2020/12/01 13:31:30;;;;;;;3.88;2.58;;;4.30;81.60;;;;;;5107026;28;27409;-39
2020/12/01 13:34:15;;;;;;;4.60;2.50;;;4.30;81.90;;;;;;5107198;28;27386;-38
2020/12/01 13:37:00;;;;;;;4.35;2.85;;;4.40;82.00;;;;;;5107006;28;27450;-45
2020/12/01 13:39:44;;;;;;;5.68;3.47;;;4.50;82.10;;;;;;5107083;28;27402;-45
2020/12/01 13:42:29;;;;;;;6.85;3.63;;;4.50;82.60;;;;;;5106966;28;27528;-45
2020/12/01 13:45:14;;;;;;;7.38;3.80;;;4.50;82.90;;;;;;5103568;28;27398;-45
2020/12/01 13:47:59;;;;;;;6.43;3.67;;;4.60;83.40;;;;;;5106969;28;27407;-45
2020/12/01 13:50:44;;;;;;;5.97;3.67;;;4.60;82.40;;;;;;5106691;28;27531;-46
2020/12/01 13:53:28;;;;;;;5.40;3.40;;;4.60;82.10;;;;;;5106018;28;27435;-46
2020/12/01 13:56:14;;;;;;;4.88;3.22;;;4.60;81.90;;;;;;5106656;28;27410;-45
2020/12/01 13:59:00;;;;;;;5.10;3.15;;;4.70;81.70;;;;;;5106842;28;27452;-46
2020/12/01 14:01:45;;;;;;;5.30;3.15;;;4.70;81.60;;;;;;5106956;28;27397;-44
2020/12/01 14:04:30;;;;;;;6.28;4.00;;;4.70;81.50;;;;;;5106426;28;27434;-45
2020/12/01 14:07:14;;;;;;;6.43;3.58;;;4.70;82.00;;;;;;5106543;28;27448;-47
2020/12/01 14:09:59;;;;;;;5.07;3.38;;;4.70;81.80;;;;;;5106706;28;27471;-45
2020/12/01 14:12:43;;;;;;;6.00;3.47;;;4.70;81.80;;;;;;5103082;28;27486;-44
2020/12/01 14:15:30;;;;;;;7.57;4.25;;;4.70;82.10;;;;;;5106192;28;27480;-48
2020/12/01 14:18:15;;;;;;;7.35;4.30;;;4.70;82.80;;;;;;5106341;28;27403;-47
2020/12/01 14:21:01;;;;;;;11.05;3.83;;;4.70;82.40;;;;;;5106510;28;27571;-46
2020/12/01 14:23:46;;;;;;;6.88;3.78;;;4.70;82.30;;;;;;5102125;28;27530;-45
2020/12/01 14:26:31;;;;;;;12.60;4.30;;;4.70;82.10;;;;;;5106130;28;27522;-45
2020/12/01 14:29:16;;;;;;;7.05;3.95;;;4.70;82.60;;;;;;5106015;28;27427;-45
2020/12/01 14:32:00;;;;;;;8.98;4.47;;;4.70;82.40;;;;;;5106096;28;27479;-45
2020/12/01 14:34:45;;;;;;;8.10;4.60;;;4.70;82.30;;;;;;5106348;28;27457;-46
2020/12/01 14:37:30;;;;;;;8.63;4.38;;;4.60;82.30;;;;;;5103048;28;27508;-46
2020/12/01 14:40:15;;;;;;;6.60;3.90;;;4.60;82.70;;;;;;5106366;28;27452;-45
2020/12/01 14:43:01;;;;;;;7.30;4.35;;;4.60;82.60;;;;;;5105836;28;27454;-45
2020/12/01 14:45:46;;;;;;;6.63;3.90;;;4.60;82.50;;;;;;5105576;28;27422;-45
2020/12/01 14:48:35;;;;;;;7.68;4.45;;;4.60;83.00;;;;;;5104860;28;27503;-60
2020/12/01 14:51:32;;;;;;;11.68;4.97;;;4.60;83.50;;;;;;5105769;28;26867;-45
2020/12/01 14:54:20;;;;;;;13.70;4.93;;;4.60;84.30;;;;;;5104781;28;27355;-46
2020/12/01 14:57:15;;;;;;;10.63;4.75;;;4.50;84.00;;;;;;5105846;28;27446;-46
2020/12/01 15:00:24;;;;;;;16.27;4.65;;;4.50;84.40;;;;;;5105952;28;27401;-46
2020/12/01 15:03:29;;;;;;;8.45;4.63;;;4.40;84.40;;;;;;5104484;28;27698;-46
2020/12/01 15:06:28;;;;;;;6.32;4.43;;;4.30;84.20;;;;;;5101430;28;27371;-45
2020/12/01 15:09:20;;;;;;;6.82;4.45;;;4.20;85.30;;;;;;5105720;28;27535;-45
2020/12/01 15:12:11;;;;;;;7.45;4.38;;;4.20;84.70;;;;;;5105742;28;27319;-47
2020/12/01 15:14:55;;;;;;;7.22;4.10;;;4.10;84.60;;;;;;5088861;28;27504;-46
2020/12/01 15:17:40;;;;;;;8.93;3.85;;;4.00;84.70;;;;;;5105424;28;27953;-46
2020/12/01 15:20:25;;;;;;;8.88;4.20;;;4.00;84.70;;;;;;5101703;28;27403;-46